sensor_id;sensor_type;location;lat;lon;timestamp;pressure;altitude;pressure_sealevel;temperature;humidity
77410;BME280;66481;51.332;22.804;2024-01-15T00:01:29;97549.78;;;-0.31;99.28
77410;BME280;66481;51.332;22.804;2024-01-15T00:05:30;97540.69;;;-0.24;99.27
77410;BME280;66481;51.332;22.804;2024-01-15T00:09:31;97533.19;;;-0.29;99.27
77410;BME280;66481;51.332;22.804;2024-01-15T00:13:32;97532.47;;;-0.31;99.14
77410;BME280;66481;51.332;22.804;2024-01-15T00:17:33;97531.41;;;-0.28;99.21
77410;BME280;66481;51.332;22.804;2024-01-15T00:21:34;97529.16;;;-0.20;98.55
77410;BME280;66481;51.332;22.804;2024-01-15T00:25:36;97515.13;;;-0.17;98.62
77410;BME280;66481;51.332;22.804;2024-01-15T00:29:37;97515.53;;;-0.24;98.44
77410;BME280;66481;51.332;22.804;2024-01-15T00:33:38;97504.41;;;-0.26;98.28
77410;BME280;66481;51.332;22.804;2024-01-15T00:37:39;97512.00;;;-0.23;97.94
77410;BME280;66481;51.332;22.804;2024-01-15T00:41:41;97487.69;;;-0.22;97.96
77410;BME280;66481;51.332;22.804;2024-01-15T00:45:42;97481.13;;;-0.27;97.57
77410;BME280;66481;51.332;22.804;2024-01-15T00:49:43;97477.47;;;-0.25;97.70
77410;BME280;66481;51.332;22.804;2024-01-15T00:53:44;97477.16;;;-0.33;97.58
77410;BME280;66481;51.332;22.804;2024-01-15T00:57:45;97466.25;;;-0.38;97.44
77410;BME280;66481;51.332;22.804;2024-01-15T01:01:47;97450.94;;;-0.43;97.77
77410;BME280;66481;51.332;22.804;2024-01-15T01:05:48;97461.34;;;-0.43;98.24
77410;BME280;66481;51.332;22.804;2024-01-15T01:09:50;97455.72;;;-0.49;98.25
77410;BME280;66481;51.332;22.804;2024-01-15T01:13:52;97461.41;;;-0.57;99.33
77410;BME280;66481;51.332;22.804;2024-01-15T01:17:53;97453.28;;;-0.65;99.42
77410;BME280;66481;51.332;22.804;2024-01-15T01:21:54;97453.22;;;-0.78;100.00
77410;BME280;66481;51.332;22.804;2024-01-15T01:25:55;97449.91;;;-0.80;100.00
77410;BME280;66481;51.332;22.804;2024-01-15T01:29:56;97437.25;;;-0.72;100.00
77410;BME280;66481;51.332;22.804;2024-01-15T01:33:58;97446.94;;;-0.61;100.00
77410;BME280;66481;51.332;22.804;2024-01-15T01:37:59;97443.00;;;-0.67;100.00
77410;BME280;66481;51.332;22.804;2024-01-15T01:42:00;97440.06;;;-0.75;100.00
77410;BME280;66481;51.332;22.804;2024-01-15T01:46:03;97438.81;;;-0.69;100.00
77410;BME280;66481;51.332;22.804;2024-01-15T01:50:04;97425.16;;;-0.86;100.00
77410;BME280;66481;51.332;22.804;2024-01-15T01:54:06;97426.16;;;-0.74;100.00
77410;BME280;66481;51.332;22.804;2024-01-15T01:58:10;97435.00;;;-0.64;100.00
77410;BME280;66481;51.332;22.804;2024-01-15T02:02:11;97415.25;;;-0.66;100.00
77410;BME280;66481;51.332;22.804;2024-01-15T02:06:12;97408.31;;;-0.53;100.00
77410;BME280;66481;51.332;22.804;2024-01-15T02:10:14;97403.75;;;-0.62;100.00
77410;BME280;66481;51.332;22.804;2024-01-15T02:14:16;97396.16;;;-0.65;100.00
77410;BME280;66481;51.332;22.804;2024-01-15T02:18:17;97410.28;;;-0.57;100.00
77410;BME280;66481;51.332;22.804;2024-01-15T02:22:18;97399.72;;;-0.53;99.66
77410;BME280;66481;51.332;22.804;2024-01-15T02:26:19;97387.13;;;-0.60;98.80
77410;BME280;66481;51.332;22.804;2024-01-15T02:30:21;97378.06;;;-0.67;98.46
77410;BME280;66481;51.332;22.804;2024-01-15T02:34:23;97383.16;;;-0.65;98.79
77410;BME280;66481;51.332;22.804;2024-01-15T02:38:24;97379.31;;;-0.60;98.03
77410;BME280;66481;51.332;22.804;2024-01-15T02:42:26;97366.88;;;-0.54;98.06
77410;BME280;66481;51.332;22.804;2024-01-15T02:46:27;97358.13;;;-0.66;97.20
77410;BME280;66481;51.332;22.804;2024-01-15T02:50:28;97346.63;;;-0.62;97.30
77410;BME280;66481;51.332;22.804;2024-01-15T02:54:29;97337.88;;;-0.61;96.76
77410;BME280;66481;51.332;22.804;2024-01-15T02:58:30;97337.44;;;-0.68;96.61
77410;BME280;66481;51.332;22.804;2024-01-15T03:02:31;97335.91;;;-0.70;96.44
77410;BME280;66481;51.332;22.804;2024-01-15T03:06:32;97327.16;;;-0.69;96.10
77410;BME280;66481;51.332;22.804;2024-01-15T03:10:33;97316.25;;;-0.74;96.23
77410;BME280;66481;51.332;22.804;2024-01-15T03:14:35;97317.59;;;-0.82;96.11
77410;BME280;66481;51.332;22.804;2024-01-15T03:18:36;97321.03;;;-0.81;96.37
77410;BME280;66481;51.332;22.804;2024-01-15T03:22:37;97311.69;;;-0.84;96.49
77410;BME280;66481;51.332;22.804;2024-01-15T03:26:38;97316.34;;;-0.89;97.35
77410;BME280;66481;51.332;22.804;2024-01-15T03:30:40;97313.56;;;-0.86;97.28
77410;BME280;66481;51.332;22.804;2024-01-15T03:34:41;97308.53;;;-1.02;97.37
77410;BME280;66481;51.332;22.804;2024-01-15T03:38:42;97313.28;;;-1.08;98.72
77410;BME280;66481;51.332;22.804;2024-01-15T03:42:43;97319.19;;;-1.19;99.51
77410;BME280;66481;51.332;22.804;2024-01-15T03:46:44;97326.03;;;-1.18;100.00
77410;BME280;66481;51.332;22.804;2024-01-15T03:50:45;97316.88;;;-1.24;100.00
77410;BME280;66481;51.332;22.804;2024-01-15T03:54:46;97311.31;;;-1.18;100.00
77410;BME280;66481;51.332;22.804;2024-01-15T03:58:47;97300.94;;;-1.18;100.00
77410;BME280;66481;51.332;22.804;2024-01-15T04:02:48;97288.06;;;-1.06;100.00
77410;BME280;66481;51.332;22.804;2024-01-15T04:06:49;97303.97;;;-0.98;100.00
77410;BME280;66481;51.332;22.804;2024-01-15T04:10:50;97288.22;;;-0.95;99.59
77410;BME280;66481;51.332;22.804;2024-01-15T04:14:51;97275.22;;;-0.95;98.80
77410;BME280;66481;51.332;22.804;2024-01-15T04:18:52;97257.88;;;-0.95;97.92
77410;BME280;66481;51.332;22.804;2024-01-15T04:22:54;97251.34;;;-1.00;97.57
77410;BME280;66481;51.332;22.804;2024-01-15T04:26:55;97241.88;;;-1.01;97.60
77410;BME280;66481;51.332;22.804;2024-01-15T04:30:55;97253.31;;;-1.04;97.29
77410;BME280;66481;51.332;22.804;2024-01-15T04:34:57;97244.38;;;-1.00;96.68
77410;BME280;66481;51.332;22.804;2024-01-15T04:38:58;97239.09;;;-0.85;96.44
77410;BME280;66481;51.332;22.804;2024-01-15T04:42:59;97227.16;;;-0.88;96.01
77410;BME280;66481;51.332;22.804;2024-01-15T04:47:00;97218.94;;;-0.82;95.03
77410;BME280;66481;51.332;22.804;2024-01-15T04:51:04;97204.09;;;-0.67;94.68
77410;BME280;66481;51.332;22.804;2024-01-15T04:55:05;97200.56;;;-0.66;93.97
77410;BME280;66481;51.332;22.804;2024-01-15T04:59:07;97182.50;;;-0.67;93.22
77410;BME280;66481;51.332;22.804;2024-01-15T05:03:08;97178.94;;;-0.66;92.55
77410;BME280;66481;51.332;22.804;2024-01-15T05:07:09;97175.19;;;-0.49;91.49
77410;BME280;66481;51.332;22.804;2024-01-15T05:11:11;97165.50;;;-0.47;91.35
77410;BME280;66481;51.332;22.804;2024-01-15T05:15:12;97160.72;;;-0.41;91.31
77410;BME280;66481;51.332;22.804;2024-01-15T05:19:14;97178.81;;;-0.39;91.37
77410;BME280;66481;51.332;22.804;2024-01-15T05:23:15;97166.22;;;-0.45;91.58
77410;BME280;66481;51.332;22.804;2024-01-15T05:27:17;97178.72;;;-0.50;91.81
77410;BME280;66481;51.332;22.804;2024-01-15T05:31:18;97161.19;;;-0.60;93.49
77410;BME280;66481;51.332;22.804;2024-01-15T05:35:20;97177.63;;;-0.72;95.31
77410;BME280;66481;51.332;22.804;2024-01-15T05:39:21;97192.19;;;-0.95;97.38
77410;BME280;66481;51.332;22.804;2024-01-15T05:43:22;97192.34;;;-1.11;99.08
77410;BME280;66481;51.332;22.804;2024-01-15T05:47:23;97191.13;;;-1.18;99.28
77410;BME280;66481;51.332;22.804;2024-01-15T05:51:25;97186.53;;;-1.15;99.83
77410;BME280;66481;51.332;22.804;2024-01-15T05:55:26;97193.41;;;-1.14;100.00
77410;BME280;66481;51.332;22.804;2024-01-15T05:59:27;97180.34;;;-1.12;100.00
77410;BME280;66481;51.332;22.804;2024-01-15T06:03:32;97175.22;;;-1.01;99.83
77410;BME280;66481;51.332;22.804;2024-01-15T06:07:35;97162.69;;;-0.81;99.04
77410;BME280;66481;51.332;22.804;2024-01-15T06:11:37;97160.16;;;-0.70;98.27
77410;BME280;66481;51.332;22.804;2024-01-15T06:15:38;97160.88;;;-0.68;97.20
77410;BME280;66481;51.332;22.804;2024-01-15T06:19:40;97145.28;;;-0.55;97.28
77410;BME280;66481;51.332;22.804;2024-01-15T06:23:42;97151.50;;;-0.45;96.68
77410;BME280;66481;51.332;22.804;2024-01-15T06:27:43;97123.75;;;-0.44;95.61
77410;BME280;66481;51.332;22.804;2024-01-15T06:31:47;97137.25;;;-0.39;95.55
77410;BME280;66481;51.332;22.804;2024-01-15T06:35:48;97136.69;;;-0.31;95.39
77410;BME280;66481;51.332;22.804;2024-01-15T06:39:50;97128.56;;;-0.27;95.26
77410;BME280;66481;51.332;22.804;2024-01-15T06:43:51;97143.00;;;-0.23;94.57
77410;BME280;66481;51.332;22.804;2024-01-15T06:47:53;97129.84;;;-0.32;94.24
77410;BME280;66481;51.332;22.804;2024-01-15T06:51:54;97130.06;;;-0.35;94.87
77410;BME280;66481;51.332;22.804;2024-01-15T06:55:55;97138.47;;;-0.32;94.47
77410;BME280;66481;51.332;22.804;2024-01-15T06:59:56;97136.53;;;-0.41;94.85
77410;BME280;66481;51.332;22.804;2024-01-15T07:03:57;97143.31;;;-0.51;95.31
77410;BME280;66481;51.332;22.804;2024-01-15T07:07:59;97146.94;;;-0.54;96.01
77410;BME280;66481;51.332;22.804;2024-01-15T07:12:00;97151.63;;;-0.59;96.41
77410;BME280;66481;51.332;22.804;2024-01-15T07:16:01;97138.88;;;-0.62;97.35
77410;BME280;66481;51.332;22.804;2024-01-15T07:20:03;97149.78;;;-0.70;97.42
77410;BME280;66481;51.332;22.804;2024-01-15T07:24:04;97159.94;;;-0.67;97.98
77410;BME280;66481;51.332;22.804;2024-01-15T07:28:06;97159.34;;;-0.70;97.83
77410;BME280;66481;51.332;22.804;2024-01-15T07:32:07;97150.38;;;-0.66;97.61
77410;BME280;66481;51.332;22.804;2024-01-15T07:36:08;97154.44;;;-0.62;97.66
77410;BME280;66481;51.332;22.804;2024-01-15T07:40:10;97149.97;;;-0.60;97.04
77410;BME280;66481;51.332;22.804;2024-01-15T07:44:11;97159.81;;;-0.52;97.03
77410;BME280;66481;51.332;22.804;2024-01-15T07:48:15;97155.03;;;-0.46;96.45
77410;BME280;66481;51.332;22.804;2024-01-15T07:52:16;97141.72;;;-0.41;96.17
77410;BME280;66481;51.332;22.804;2024-01-15T07:56:17;97141.78;;;-0.30;96.13
77410;BME280;66481;51.332;22.804;2024-01-15T08:00:19;97137.53;;;-0.31;95.23
77410;BME280;66481;51.332;22.804;2024-01-15T08:04:20;97134.16;;;-0.20;95.17
77410;BME280;66481;51.332;22.804;2024-01-15T08:08:23;97129.28;;;-0.01;94.73
77410;BME280;66481;51.332;22.804;2024-01-15T08:12:24;97117.84;;;0.02;94.77
77410;BME280;66481;51.332;22.804;2024-01-15T08:16:25;97121.94;;;-0.31;96.74
77410;BME280;66481;51.332;22.804;2024-01-15T08:20:26;97119.94;;;-0.64;98.34
77410;BME280;66481;51.332;22.804;2024-01-15T08:24:27;97134.41;;;-0.73;100.00
77410;BME280;66481;51.332;22.804;2024-01-15T08:28:29;97147.06;;;-0.68;100.00
77410;BME280;66481;51.332;22.804;2024-01-15T08:32:31;97154.56;;;-0.77;100.00
77410;BME280;66481;51.332;22.804;2024-01-15T08:36:32;97162.25;;;-0.62;100.00
77410;BME280;66481;51.332;22.804;2024-01-15T08:40:35;97164.22;;;-0.66;100.00
77410;BME280;66481;51.332;22.804;2024-01-15T08:44:36;97158.28;;;-0.68;100.00
77410;BME280;66481;51.332;22.804;2024-01-15T08:48:37;97168.31;;;-0.38;100.00
77410;BME280;66481;51.332;22.804;2024-01-15T08:52:38;97166.94;;;-0.30;100.00
77410;BME280;66481;51.332;22.804;2024-01-15T08:56:40;97154.16;;;-0.33;100.00
77410;BME280;66481;51.332;22.804;2024-01-15T09:00:41;97144.97;;;-0.26;100.00
77410;BME280;66481;51.332;22.804;2024-01-15T09:04:42;97164.75;;;0.36;100.00
77410;BME280;66481;51.332;22.804;2024-01-15T09:08:44;97153.66;;;0.69;98.61
77410;BME280;66481;51.332;22.804;2024-01-15T09:12:46;97128.88;;;0.52;97.71
77410;BME280;66481;51.332;22.804;2024-01-15T09:16:47;97131.19;;;0.80;96.29
77410;BME280;66481;51.332;22.804;2024-01-15T09:20:48;97131.91;;;1.04;95.43
77410;BME280;66481;51.332;22.804;2024-01-15T09:24:49;97130.97;;;1.05;93.97
77410;BME280;66481;51.332;22.804;2024-01-15T09:28:51;97101.72;;;0.90;93.13
77410;BME280;66481;51.332;22.804;2024-01-15T09:32:53;97090.38;;;0.80;93.15
77410;BME280;66481;51.332;22.804;2024-01-15T09:36:54;97090.13;;;0.72;93.24
77410;BME280;66481;51.332;22.804;2024-01-15T09:40:55;97110.47;;;1.12;93.51
77410;BME280;66481;51.332;22.804;2024-01-15T09:44:57;97096.41;;;1.69;91.84
77410;BME280;66481;51.332;22.804;2024-01-15T09:48:59;97080.59;;;1.94;89.79
77410;BME280;66481;51.332;22.804;2024-01-15T09:53:01;97068.34;;;2.05;88.42
77410;BME280;66481;51.332;22.804;2024-01-15T09:57:03;97064.47;;;1.88;87.58
77410;BME280;66481;51.332;22.804;2024-01-15T10:01:04;97042.41;;;1.72;86.95
77410;BME280;66481;51.332;22.804;2024-01-15T10:05:06;97014.81;;;1.69;87.08
77410;BME280;66481;51.332;22.804;2024-01-15T10:09:07;97045.84;;;2.04;86.01
77410;BME280;66481;51.332;22.804;2024-01-15T10:13:09;97051.66;;;2.18;85.32
77410;BME280;66481;51.332;22.804;2024-01-15T10:17:13;97066.72;;;2.25;84.64
77410;BME280;66481;51.332;22.804;2024-01-15T10:21:16;97052.34;;;1.99;85.13
77410;BME280;66481;51.332;22.804;2024-01-15T10:25:17;97025.00;;;1.61;85.50
77410;BME280;66481;51.332;22.804;2024-01-15T10:29:24;97070.13;;;1.73;86.55
77410;BME280;66481;51.332;22.804;2024-01-15T10:33:26;97068.50;;;1.60;87.09
77410;BME280;66481;51.332;22.804;2024-01-15T10:37:27;97065.69;;;1.84;86.74
77410;BME280;66481;51.332;22.804;2024-01-15T10:41:28;97065.44;;;2.41;85.39
77410;BME280;66481;51.332;22.804;2024-01-15T10:45:30;97042.31;;;2.36;83.30
77410;BME280;66481;51.332;22.804;2024-01-15T10:49:31;97030.88;;;2.06;82.74
77410;BME280;66481;51.332;22.804;2024-01-15T10:53:34;97038.91;;;1.50;84.04
77410;BME280;66481;51.332;22.804;2024-01-15T10:57:37;97039.91;;;1.38;84.34
77410;BME280;66481;51.332;22.804;2024-01-15T11:01:38;97052.53;;;1.54;84.59
77410;BME280;66481;51.332;22.804;2024-01-15T11:05:44;97046.00;;;1.92;82.82
77410;BME280;66481;51.332;22.804;2024-01-15T11:09:45;97026.69;;;1.50;82.52
77410;BME280;66481;51.332;22.804;2024-01-15T11:13:47;97029.00;;;1.44;83.24
77410;BME280;66481;51.332;22.804;2024-01-15T11:18:01;97031.31;;;1.15;84.02
77410;BME280;66481;51.332;22.804;2024-01-15T11:22:04;97038.75;;;0.97;85.29
77410;BME280;66481;51.332;22.804;2024-01-15T11:30:33;97046.56;;;0.97;85.60
77410;BME280;66481;51.332;22.804;2024-01-15T11:34:58;97062.78;;;1.00;85.33
77410;BME280;66481;51.332;22.804;2024-01-15T11:38:59;97055.13;;;0.99;85.50
77410;BME280;66481;51.332;22.804;2024-01-15T11:43:00;97044.88;;;1.41;84.65
77410;BME280;66481;51.332;22.804;2024-01-15T11:47:07;97033.41;;;1.32;82.88
77410;BME280;66481;51.332;22.804;2024-01-15T11:51:11;97021.59;;;1.17;83.33
77410;BME280;66481;51.332;22.804;2024-01-15T11:59:20;96990.06;;;1.31;82.99
77410;BME280;66481;51.332;22.804;2024-01-15T12:03:22;97045.56;;;2.50;80.87
77410;BME280;66481;51.332;22.804;2024-01-15T12:07:23;97002.34;;;2.97;77.38
77410;BME280;66481;51.332;22.804;2024-01-15T12:11:25;97001.06;;;3.32;75.08
77410;BME280;66481;51.332;22.804;2024-01-15T12:15:29;96999.94;;;3.25;74.69
77410;BME280;66481;51.332;22.804;2024-01-15T12:19:30;96972.47;;;2.80;73.65
77410;BME280;66481;51.332;22.804;2024-01-15T12:23:31;96954.03;;;1.90;74.91
77410;BME280;66481;51.332;22.804;2024-01-15T12:27:33;96953.75;;;1.50;76.97
77410;BME280;66481;51.332;22.804;2024-01-15T12:31:34;97004.28;;;2.13;77.24
77410;BME280;66481;51.332;22.804;2024-01-15T12:35:36;96976.13;;;1.85;76.95
77410;BME280;66481;51.332;22.804;2024-01-15T12:39:37;96964.09;;;1.73;77.85
77410;BME280;66481;51.332;22.804;2024-01-15T12:43:38;96978.25;;;2.22;77.33
77410;BME280;66481;51.332;22.804;2024-01-15T12:47:40;96987.22;;;2.30;76.55
77410;BME280;66481;51.332;22.804;2024-01-15T12:51:42;96976.00;;;1.87;76.44
77410;BME280;66481;51.332;22.804;2024-01-15T12:55:43;96981.94;;;1.78;77.09
77410;BME280;66481;51.332;22.804;2024-01-15T12:59:44;96976.28;;;1.73;76.99
77410;BME280;66481;51.332;22.804;2024-01-15T13:03:46;96984.06;;;1.52;77.21
77410;BME280;66481;51.332;22.804;2024-01-15T13:07:47;97008.16;;;1.44;77.55
77410;BME280;66481;51.332;22.804;2024-01-15T13:11:48;97010.06;;;1.30;78.23
77410;BME280;66481;51.332;22.804;2024-01-15T13:15:49;97014.88;;;1.03;79.56
77410;BME280;66481;51.332;22.804;2024-01-15T13:19:51;97019.97;;;1.04;79.84
77410;BME280;66481;51.332;22.804;2024-01-15T13:23:52;96998.50;;;1.12;79.28
77410;BME280;66481;51.332;22.804;2024-01-15T13:27:53;97000.56;;;0.86;79.92
77410;BME280;66481;51.332;22.804;2024-01-15T13:31:54;97007.31;;;0.88;79.44
77410;BME280;66481;51.332;22.804;2024-01-15T13:35:56;97004.09;;;0.85;79.78
77410;BME280;66481;51.332;22.804;2024-01-15T13:39:57;97008.38;;;0.86;80.29
77410;BME280;66481;51.332;22.804;2024-01-15T13:43:59;97007.78;;;0.82;80.40
77410;BME280;66481;51.332;22.804;2024-01-15T13:48:00;97007.19;;;0.67;80.51
77410;BME280;66481;51.332;22.804;2024-01-15T13:52:03;97004.50;;;0.58;81.24
77410;BME280;66481;51.332;22.804;2024-01-15T13:56:05;96995.22;;;0.31;81.32
77410;BME280;66481;51.332;22.804;2024-01-15T14:00:08;97025.47;;;0.09;81.66
77410;BME280;66481;51.332;22.804;2024-01-15T14:04:12;97027.84;;;0.12;81.81
77410;BME280;66481;51.332;22.804;2024-01-15T14:08:13;97021.69;;;0.13;82.57
77410;BME280;66481;51.332;22.804;2024-01-15T14:12:15;97034.91;;;0.10;82.82
77410;BME280;66481;51.332;22.804;2024-01-15T14:16:16;97026.50;;;0.07;82.86
77410;BME280;66481;51.332;22.804;2024-01-15T14:20:17;97030.56;;;0.11;82.69
77410;BME280;66481;51.332;22.804;2024-01-15T14:24:18;97029.31;;;-0.08;83.21
77410;BME280;66481;51.332;22.804;2024-01-15T14:28:19;97037.59;;;-0.03;83.22
77410;BME280;66481;51.332;22.804;2024-01-15T14:32:21;97041.47;;;-0.08;83.95
77410;BME280;66481;51.332;22.804;2024-01-15T14:36:22;97050.69;;;-0.15;84.40
77410;BME280;66481;51.332;22.804;2024-01-15T14:40:25;97048.91;;;-0.15;84.73
77410;BME280;66481;51.332;22.804;2024-01-15T14:44:27;97048.50;;;-0.22;84.67
77410;BME280;66481;51.332;22.804;2024-01-15T14:48:29;97050.13;;;-0.32;85.04
77410;BME280;66481;51.332;22.804;2024-01-15T14:52:34;97068.03;;;-0.16;85.63
77410;BME280;66481;51.332;22.804;2024-01-15T14:56:35;97056.03;;;-0.30;85.02
77410;BME280;66481;51.332;22.804;2024-01-15T15:00:37;97069.09;;;-0.18;85.64
77410;BME280;66481;51.332;22.804;2024-01-15T15:04:38;97072.50;;;-0.18;85.61
77410;BME280;66481;51.332;22.804;2024-01-15T15:08:39;97076.19;;;-0.09;85.30
77410;BME280;66481;51.332;22.804;2024-01-15T15:12:42;97073.50;;;-0.08;84.90
77410;BME280;66481;51.332;22.804;2024-01-15T15:16:43;97076.31;;;-0.11;85.43
77410;BME280;66481;51.332;22.804;2024-01-15T15:20:45;97077.16;;;-0.10;85.25
77410;BME280;66481;51.332;22.804;2024-01-15T15:24:46;97084.31;;;-0.14;84.55
77410;BME280;66481;51.332;22.804;2024-01-15T15:28:48;97070.13;;;-0.21;84.52
77410;BME280;66481;51.332;22.804;2024-01-15T15:32:52;97072.69;;;-0.32;84.95
77410;BME280;66481;51.332;22.804;2024-01-15T15:36:54;97069.91;;;-0.42;84.61
77410;BME280;66481;51.332;22.804;2024-01-15T15:40:55;97073.81;;;-0.36;85.19
77410;BME280;66481;51.332;22.804;2024-01-15T15:44:57;97091.59;;;-0.30;84.84
77410;BME280;66481;51.332;22.804;2024-01-15T15:48:59;97098.56;;;-0.31;84.75
77410;BME280;66481;51.332;22.804;2024-01-15T15:53:00;97103.25;;;-0.36;85.60
77410;BME280;66481;51.332;22.804;2024-01-15T15:57:02;97094.34;;;-0.45;85.60
77410;BME280;66481;51.332;22.804;2024-01-15T16:01:04;97100.56;;;-0.47;85.19
77410;BME280;66481;51.332;22.804;2024-01-15T16:05:07;97094.78;;;-0.51;85.43
77410;BME280;66481;51.332;22.804;2024-01-15T16:09:11;97098.44;;;-0.53;84.85
77410;BME280;66481;51.332;22.804;2024-01-15T16:13:13;97094.78;;;-0.51;85.04
77410;BME280;66481;51.332;22.804;2024-01-15T16:17:14;97080.69;;;-0.60;85.35
77410;BME280;66481;51.332;22.804;2024-01-15T16:21:16;97080.69;;;-0.60;85.54
77410;BME280;66481;51.332;22.804;2024-01-15T16:25:17;97067.97;;;-0.76;85.40
77410;BME280;66481;51.332;22.804;2024-01-15T16:29:20;97071.47;;;-0.77;85.13
77410;BME280;66481;51.332;22.804;2024-01-15T16:33:22;97086.44;;;-0.80;85.55
77410;BME280;66481;51.332;22.804;2024-01-15T16:37:24;97082.25;;;-0.70;85.15
77410;BME280;66481;51.332;22.804;2024-01-15T16:41:25;97099.56;;;-0.58;85.60
77410;BME280;66481;51.332;22.804;2024-01-15T16:45:28;97092.84;;;-0.60;84.95
77410;BME280;66481;51.332;22.804;2024-01-15T16:49:30;97085.47;;;-0.66;85.38
77410;BME280;66481;51.332;22.804;2024-01-15T16:53:32;97088.63;;;-0.74;85.08
77410;BME280;66481;51.332;22.804;2024-01-15T16:57:34;97111.44;;;-0.66;85.83
77410;BME280;66481;51.332;22.804;2024-01-15T17:01:35;97101.16;;;-0.68;85.44
77410;BME280;66481;51.332;22.804;2024-01-15T17:05:37;97112.03;;;-0.63;86.20
77410;BME280;66481;51.332;22.804;2024-01-15T17:09:42;97114.66;;;-0.63;85.27
77410;BME280;66481;51.332;22.804;2024-01-15T17:13:44;97103.75;;;-0.68;85.25
77410;BME280;66481;51.332;22.804;2024-01-15T17:17:46;97093.72;;;-0.72;85.93
77410;BME280;66481;51.332;22.804;2024-01-15T17:21:48;97105.94;;;-0.62;85.16
77410;BME280;66481;51.332;22.804;2024-01-15T17:25:50;97102.09;;;-0.69;84.94
77410;BME280;66481;51.332;22.804;2024-01-15T17:29:56;97119.22;;;-0.66;85.55
77410;BME280;66481;51.332;22.804;2024-01-15T17:33:58;97080.19;;;-0.65;85.08
77410;BME280;66481;51.332;22.804;2024-01-15T17:37:59;97114.22;;;-0.57;84.75
77410;BME280;66481;51.332;22.804;2024-01-15T17:42:01;97118.69;;;-0.59;84.70
77410;BME280;66481;51.332;22.804;2024-01-15T17:46:04;97118.31;;;-0.65;84.26
77410;BME280;66481;51.332;22.804;2024-01-15T17:50:05;97133.34;;;-0.58;84.08
77410;BME280;66481;51.332;22.804;2024-01-15T17:54:10;97131.78;;;-0.60;83.86
77410;BME280;66481;51.332;22.804;2024-01-15T17:58:12;97102.63;;;-0.64;83.76
77410;BME280;66481;51.332;22.804;2024-01-15T18:02:13;97120.56;;;-0.61;83.79
77410;BME280;66481;51.332;22.804;2024-01-15T18:06:16;97119.22;;;-0.53;83.07
77410;BME280;66481;51.332;22.804;2024-01-15T18:10:17;97131.06;;;-0.62;83.10
77410;BME280;66481;51.332;22.804;2024-01-15T18:14:18;97119.94;;;-0.64;83.29
77410;BME280;66481;51.332;22.804;2024-01-15T18:18:20;97130.22;;;-0.63;83.76
77410;BME280;66481;51.332;22.804;2024-01-15T18:22:22;97109.03;;;-0.57;83.90
77410;BME280;66481;51.332;22.804;2024-01-15T18:26:23;97129.59;;;-0.53;84.10
77410;BME280;66481;51.332;22.804;2024-01-15T18:30:25;97124.31;;;-0.52;84.09
77410;BME280;66481;51.332;22.804;2024-01-15T18:34:27;97130.94;;;-0.61;84.32
77410;BME280;66481;51.332;22.804;2024-01-15T18:38:29;97126.09;;;-0.65;84.33
77410;BME280;66481;51.332;22.804;2024-01-15T18:42:32;97134.19;;;-0.57;84.62
77410;BME280;66481;51.332;22.804;2024-01-15T18:46:34;97119.63;;;-0.60;84.80
77410;BME280;66481;51.332;22.804;2024-01-15T18:50:37;97117.25;;;-0.63;84.88
77410;BME280;66481;51.332;22.804;2024-01-15T18:54:39;97145.16;;;-1.03;87.93
77410;BME280;66481;51.332;22.804;2024-01-15T18:58:42;97149.09;;;-1.10;89.55
77410;BME280;66481;51.332;22.804;2024-01-15T19:02:44;97133.44;;;-1.09;88.97
77410;BME280;66481;51.332;22.804;2024-01-15T19:06:46;97143.69;;;-0.95;88.56
77410;BME280;66481;51.332;22.804;2024-01-15T19:10:47;97141.72;;;-0.91;87.48
77410;BME280;66481;51.332;22.804;2024-01-15T19:14:49;97110.63;;;-0.80;87.01
77410;BME280;66481;51.332;22.804;2024-01-15T19:18:51;97126.09;;;-0.78;86.37
77410;BME280;66481;51.332;22.804;2024-01-15T19:22:53;97114.69;;;-0.88;86.58
77410;BME280;66481;51.332;22.804;2024-01-15T19:26:55;97114.19;;;-0.81;86.28
77410;BME280;66481;51.332;22.804;2024-01-15T19:30:58;97110.88;;;-0.83;85.22
77410;BME280;66481;51.332;22.804;2024-01-15T19:35:00;97095.97;;;-0.68;85.44
77410;BME280;66481;51.332;22.804;2024-01-15T19:39:02;97120.69;;;-0.62;85.54
77410;BME280;66481;51.332;22.804;2024-01-15T19:43:04;97121.41;;;-0.60;85.25
77410;BME280;66481;51.332;22.804;2024-01-15T19:47:07;97117.25;;;-0.63;84.67
77410;BME280;66481;51.332;22.804;2024-01-15T19:51:09;97119.22;;;-0.66;84.03
77410;BME280;66481;51.332;22.804;2024-01-15T19:55:12;97118.00;;;-0.73;84.33
77410;BME280;66481;51.332;22.804;2024-01-15T19:59:13;97108.13;;;-0.68;84.90
77410;BME280;66481;51.332;22.804;2024-01-15T20:03:14;97125.13;;;-0.64;84.40
77410;BME280;66481;51.332;22.804;2024-01-15T20:07:16;97101.91;;;-0.79;85.01
77410;BME280;66481;51.332;22.804;2024-01-15T20:11:18;97124.47;;;-0.79;84.42
77410;BME280;66481;51.332;22.804;2024-01-15T20:15:21;97107.31;;;-0.82;84.60
77410;BME280;66481;51.332;22.804;2024-01-15T20:19:24;97110.47;;;-0.89;84.36
77410;BME280;66481;51.332;22.804;2024-01-15T20:23:25;97129.88;;;-0.95;85.33
77410;BME280;66481;51.332;22.804;2024-01-15T20:27:27;97118.25;;;-1.02;85.13
77410;BME280;66481;51.332;22.804;2024-01-15T20:31:29;97089.00;;;-1.17;84.74
77410;BME280;66481;51.332;22.804;2024-01-15T20:35:31;97104.69;;;-1.19;85.61
77410;BME280;66481;51.332;22.804;2024-01-15T20:39:33;97102.16;;;-1.07;85.19
77410;BME280;66481;51.332;22.804;2024-01-15T20:43:37;97117.94;;;-0.98;84.84
77410;BME280;66481;51.332;22.804;2024-01-15T20:47:39;97120.63;;;-0.86;85.71
77410;BME280;66481;51.332;22.804;2024-01-15T20:51:41;97115.34;;;-0.85;84.93
77410;BME280;66481;51.332;22.804;2024-01-15T20:55:46;97116.06;;;-0.83;85.15
77410;BME280;66481;51.332;22.804;2024-01-15T20:59:48;97110.53;;;-0.78;84.41
77410;BME280;66481;51.332;22.804;2024-01-15T21:03:49;97124.53;;;-0.68;84.75
77410;BME280;66481;51.332;22.804;2024-01-15T21:07:52;97127.03;;;-0.66;84.93
77410;BME280;66481;51.332;22.804;2024-01-15T21:11:54;97118.63;;;-0.70;84.80